Time;durP1;ratioP1;P1;durP2;ratioP2;P2;SDS_P1;SDS_P2;PMS_P1;PMS_P2;Temp;Humidity;BMP_temperature;BMP_pressure;BME280_temperature;BME280_humidity;BME280_pressure;Samples;Min_cycle;Max_cycle;Signal;HPM_P1;HPM_P2
2023/10/12 00:02:09;;;;;;;6.40;2.58;;;19.90;99.90;;;;;;4966878;28;20824;-73
2023/10/12 00:04:53;;;;;;;6.22;2.25;;;19.90;99.90;;;;;;4969705;28;20218;-73
2023/10/12 00:07:36;;;;;;;5.07;2.10;;;19.90;99.90;;;;;;4960813;28;20211;-73
2023/10/12 00:12:44;;;;;;;6.30;2.88;;;20.00;99.90;;;;;;4965891;28;20214;-73
2023/10/12 00:18:08;;;;;;;6.18;2.67;;;20.10;99.90;;;;;;4961541;28;20194;-73
2023/10/12 00:20:40;;;;;;;3.33;2.10;;;20.20;99.90;;;;;;4960232;28;20234;-73
2023/10/12 00:23:09;;;;;;;3.75;2.38;;;20.20;99.90;;;;;;4963198;28;20285;-72
2023/10/12 00:25:47;;;;;;;4.63;2.17;;;20.20;99.90;;;;;;4962456;28;20202;-72
2023/10/12 00:28:19;;;;;;;5.53;2.17;;;20.20;99.90;;;;;;4974976;28;20206;-73
2023/10/12 00:30:47;;;;;;;8.80;1.88;;;20.20;99.90;;;;;;4965136;28;20226;-73
2023/10/12 00:33:13;;;;;;;8.40;2.78;;;20.20;99.90;;;;;;4965276;28;20175;-73
2023/10/12 00:35:39;;;;;;;9.48;3.28;;;20.30;99.90;;;;;;4961148;28;20258;-73
2023/10/12 00:38:23;;;;;;;5.97;2.53;;;20.30;99.90;;;;;;4963353;28;20282;-73
2023/10/12 00:40:57;;;;;;;6.45;2.35;;;20.30;99.90;;;;;;4963700;28;20214;-73
2023/10/12 00:43:31;;;;;;;5.00;2.28;;;20.30;99.90;;;;;;4961035;28;20206;-74
2023/10/12 00:45:57;;;;;;;5.60;1.90;;;20.30;99.90;;;;;;4963396;28;20213;-74
2023/10/12 00:48:29;;;;;;;6.53;2.45;;;20.30;99.90;;;;;;4966321;28;20265;-74
2023/10/12 00:50:56;;;;;;;7.97;2.30;;;20.30;99.90;;;;;;4958690;28;20217;-73
2023/10/12 00:53:23;;;;;;;8.35;2.35;;;20.30;99.90;;;;;;4969809;28;20202;-75
2023/10/12 00:55:50;;;;;;;4.78;2.22;;;20.20;99.90;;;;;;4959543;28;20302;-74
2023/10/12 00:58:17;;;;;;;6.50;2.78;;;20.20;99.90;;;;;;4965734;28;20225;-74
2023/10/12 01:00:45;;;;;;;7.15;2.17;;;20.20;99.90;;;;;;4965618;28;20591;-74
2023/10/12 01:08:35;;;;;;;5.97;2.30;;;20.20;99.90;;;;;;4959144;28;20199;-74
2023/10/12 01:11:06;;;;;;;7.10;2.83;;;20.20;99.90;;;;;;4962980;28;20293;-73
2023/10/12 01:13:33;;;;;;;6.55;2.78;;;20.10;99.90;;;;;;4967236;28;20221;-75
2023/10/12 01:16:04;;;;;;;6.18;2.85;;;20.10;99.90;;;;;;4967035;28;20689;-72
2023/10/12 01:18:29;;;;;;;5.65;2.17;;;20.10;99.90;;;;;;4963523;28;20622;-75
2023/10/12 01:20:56;;;;;;;6.57;2.47;;;20.00;99.90;;;;;;4960773;28;20211;-73
2023/10/12 01:23:21;;;;;;;7.90;2.47;;;20.00;99.90;;;;;;4960767;28;20651;-74
2023/10/12 01:25:48;;;;;;;4.18;2.35;;;20.10;99.90;;;;;;4959880;28;20238;-75
2023/10/12 01:28:15;;;;;;;9.52;2.63;;;20.00;99.90;;;;;;4963432;28;20234;-73
2023/10/12 01:30:43;;;;;;;6.65;2.70;;;20.00;99.90;;;;;;4961292;28;20210;-74
2023/10/12 01:33:09;;;;;;;7.55;2.72;;;20.00;99.90;;;;;;4962681;28;20193;-75
2023/10/12 01:35:39;;;;;;;5.85;2.42;;;20.00;99.90;;;;;;4961153;28;20171;-75
2023/10/12 01:38:05;;;;;;;7.07;2.35;;;20.00;99.90;;;;;;4962881;28;20202;-74
2023/10/12 01:43:17;;;;;;;8.85;2.50;;;20.00;99.90;;;;;;4965354;28;20241;-75
2023/10/12 01:45:43;;;;;;;7.57;3.22;;;20.00;99.90;;;;;;4964985;28;20233;-74
2023/10/12 01:48:12;;;;;;;7.05;2.13;;;19.90;99.90;;;;;;4961784;28;20228;-74
2023/10/12 01:50:39;;;;;;;4.40;2.20;;;19.90;99.90;;;;;;4963701;28;20651;-75
2023/10/12 01:55:45;;;;;;;3.80;2.45;;;19.80;99.90;;;;;;4959993;28;20207;-73
2023/10/12 01:58:12;;;;;;;5.13;2.28;;;19.80;99.90;;;;;;4973104;28;20202;-74
2023/10/12 02:00:39;;;;;;;3.80;2.30;;;19.80;99.90;;;;;;4959587;28;20214;-75
2023/10/12 02:05:59;;;;;;;4.25;1.73;;;19.70;99.90;;;;;;4958020;28;20252;-74
2023/10/12 02:08:32;;;;;;;8.43;2.88;;;19.70;99.90;;;;;;4961902;28;20198;-72
2023/10/12 02:11:07;;;;;;;4.30;2.03;;;19.70;99.90;;;;;;4964203;28;20273;-73
2023/10/12 02:13:36;;;;;;;7.57;2.60;;;19.70;99.90;;;;;;4965197;28;20265;-72
2023/10/12 02:16:06;;;;;;;5.57;2.53;;;19.60;99.90;;;;;;4962667;28;20228;-73
2023/10/12 02:18:33;;;;;;;7.65;2.45;;;19.60;99.90;;;;;;4966078;28;20285;-73
2023/10/12 02:21:07;;;;;;;5.53;2.75;;;19.60;99.90;;;;;;4967877;28;20211;-73
2023/10/12 02:23:54;;;;;;;5.38;2.53;;;19.60;99.90;;;;;;4969029;28;20214;-73
2023/10/12 02:26:35;;;;;;;9.45;2.80;;;19.50;99.90;;;;;;4967183;28;20306;-73
2023/10/12 02:34:31;;;;;;;5.45;2.20;;;19.50;99.90;;;;;;4964071;28;20210;-73
2023/10/12 02:39:41;;;;;;;6.40;2.58;;;19.40;99.90;;;;;;4961399;28;20242;-74
2023/10/12 02:47:24;;;;;;;5.70;2.65;;;19.40;99.90;;;;;;4962702;28;20573;-73
2023/10/12 02:52:36;;;;;;;4.43;2.45;;;19.40;99.90;;;;;;4968030;28;20219;-73
2023/10/12 02:55:18;;;;;;;4.28;2.30;;;19.30;99.90;;;;;;4964332;28;20514;-72
2023/10/12 02:57:53;;;;;;;5.68;1.88;;;19.30;99.90;;;;;;4964083;28;20681;-73
2023/10/12 03:00:22;;;;;;;6.20;2.05;;;19.30;99.90;;;;;;4971873;28;20250;-73
2023/10/12 03:02:52;;;;;;;4.50;2.20;;;19.20;99.90;;;;;;4968081;28;20688;-73
2023/10/12 03:05:18;;;;;;;6.78;2.50;;;19.20;99.90;;;;;;4972120;28;20206;-73
2023/10/12 03:07:44;;;;;;;4.38;2.67;;;19.10;99.90;;;;;;4965998;28;20217;-73
2023/10/12 03:10:26;;;;;;;5.63;2.60;;;19.10;99.90;;;;;;4965358;28;20213;-71
2023/10/12 03:12:55;;;;;;;8.60;2.33;;;19.10;99.90;;;;;;4969226;28;20614;-73
2023/10/12 03:15:47;;;;;;;4.95;2.70;;;19.00;99.90;;;;;;4968785;28;20178;-73
2023/10/12 03:18:13;;;;;;;4.95;2.67;;;19.00;99.90;;;;;;4963449;28;20217;-73
2023/10/12 03:20:51;;;;;;;12.68;2.60;;;18.90;99.90;;;;;;4967034;28;20273;-73
2023/10/12 03:23:19;;;;;;;6.32;2.70;;;18.80;99.90;;;;;;4967271;28;20206;-72
2023/10/12 03:25:46;;;;;;;11.18;3.75;;;18.80;99.90;;;;;;4969030;28;20214;-73
2023/10/12 03:28:19;;;;;;;5.93;2.88;;;18.80;99.90;;;;;;4964018;28;20202;-72
2023/10/12 03:30:53;;;;;;;11.25;3.20;;;18.70;99.90;;;;;;4969849;28;20202;-73
2023/10/12 03:33:19;;;;;;;9.15;2.97;;;18.70;99.90;;;;;;4969299;28;20182;-73
2023/10/12 03:38:37;;;;;;;6.68;2.92;;;18.60;99.90;;;;;;4973067;28;20845;-74
2023/10/12 03:41:46;;;;;;;4.47;2.45;;;18.50;99.90;;;;;;4972881;28;20232;-73
2023/10/12 03:44:11;;;;;;;5.35;2.88;;;18.50;99.90;;;;;;4969244;28;20202;-73
2023/10/12 03:46:43;;;;;;;7.15;3.05;;;18.40;99.90;;;;;;4962678;28;20709;-73
2023/10/12 03:49:24;;;;;;;6.25;3.50;;;18.30;99.90;;;;;;4962722;28;20209;-74
2023/10/12 03:51:57;;;;;;;6.75;3.22;;;18.30;99.90;;;;;;4963767;28;20622;-73
2023/10/12 03:54:29;;;;;;;8.98;3.50;;;18.30;99.90;;;;;;4966849;28;20710;-73
2023/10/12 03:57:19;;;;;;;9.82;3.00;;;18.20;99.90;;;;;;4963409;28;20247;-72
2023/10/12 03:59:59;;;;;;;11.90;3.40;;;18.20;99.90;;;;;;4968034;28;20720;-73
2023/10/12 04:02:24;;;;;;;12.20;3.40;;;18.20;99.90;;;;;;4964900;28;20214;-73
2023/10/12 04:13:09;;;;;;;8.35;3.42;;;18.00;99.90;;;;;;4969147;28;20264;-73
2023/10/12 04:18:28;;;;;;;5.88;4.00;;;17.90;99.90;;;;;;4962301;28;20238;-73
2023/10/12 04:20:57;;;;;;;6.85;4.10;;;17.80;99.90;;;;;;4965736;28;20194;-71
2023/10/12 04:28:52;;;;;;;5.72;2.72;;;17.60;99.90;;;;;;4964667;28;20289;-73
2023/10/12 04:31:21;;;;;;;9.88;2.88;;;17.60;99.90;;;;;;4960846;28;20250;-72
2023/10/12 04:34:06;;;;;;;5.28;2.40;;;17.60;99.90;;;;;;4967323;28;20345;-73
2023/10/12 04:44:35;;;;;;;6.80;2.65;;;17.40;99.90;;;;;;4961515;28;20211;-73
2023/10/12 04:47:06;;;;;;;5.70;2.75;;;17.30;99.90;;;;;;4961270;28;20618;-74
2023/10/12 04:57:26;;;;;;;2.97;1.45;;;17.00;99.90;;;;;;4960864;28;20697;-74
2023/10/12 05:02:41;;;;;;;2.42;1.40;;;17.00;99.90;;;;;;4960443;28;20208;-74
2023/10/12 05:07:57;;;;;;;3.17;1.67;;;16.90;99.90;;;;;;4961255;28;20210;-75
2023/10/12 05:13:10;;;;;;;2.10;1.70;;;16.80;99.90;;;;;;4960119;28;20209;-74
2023/10/12 05:18:43;;;;;;;4.78;1.80;;;16.80;99.90;;;;;;4950293;29;20202;-74
2023/10/12 05:21:10;;;;;;;4.22;1.73;;;16.80;99.90;;;;;;4949963;29;20310;-73
2023/10/12 05:23:36;;;;;;;2.33;1.50;;;16.80;99.90;;;;;;4959602;28;20182;-74
2023/10/12 05:28:28;;;;;;;4.68;2.22;;;16.80;99.90;;;;;;4961584;28;20210;-73
2023/10/12 05:31:01;;;;;;;2.80;1.85;;;16.80;99.90;;;;;;4959292;28;20704;-72
2023/10/12 05:36:08;;;;;;;3.17;1.90;;;16.80;99.90;;;;;;4961506;28;20186;-73
2023/10/12 05:39:11;;;;;;;4.07;2.00;;;16.80;99.90;;;;;;4961944;28;20323;-74
2023/10/12 05:41:38;;;;;;;4.60;2.47;;;16.80;99.90;;;;;;4960962;28;20213;-74
2023/10/12 05:44:08;;;;;;;6.32;1.63;;;16.80;99.90;;;;;;4961099;28;20202;-74
2023/10/12 05:46:35;;;;;;;4.60;2.10;;;16.70;99.90;;;;;;4960302;28;20693;-74
2023/10/12 05:49:02;;;;;;;6.18;2.40;;;16.70;99.90;;;;;;4961110;28;20215;-73
2023/10/12 05:51:28;;;;;;;7.47;3.28;;;16.80;99.90;;;;;;4961169;28;20227;-73
2023/10/12 05:54:06;;;;;;;3.72;2.22;;;16.70;99.90;;;;;;4962319;28;20204;-72
2023/10/12 05:56:35;;;;;;;3.95;2.42;;;16.70;99.90;;;;;;4959762;28;20208;-74
2023/10/12 05:59:01;;;;;;;5.95;2.60;;;16.70;99.90;;;;;;4960126;28;20199;-74
2023/10/12 06:01:33;;;;;;;3.72;2.75;;;16.70;99.90;;;;;;4962910;28;20198;-73
2023/10/12 06:03:59;;;;;;;5.43;2.13;;;16.70;99.90;;;;;;4962846;28;20849;-73
2023/10/12 06:06:25;;;;;;;4.15;2.47;;;16.70;99.90;;;;;;4960457;28;20249;-74
2023/10/12 06:08:54;;;;;;;5.47;2.10;;;16.60;99.90;;;;;;4962299;28;20205;-74
2023/10/12 06:11:26;;;;;;;8.13;2.70;;;16.70;99.90;;;;;;4961186;28;20302;-73
2023/10/12 06:13:52;;;;;;;5.85;2.40;;;16.70;99.90;;;;;;4966667;28;20577;-73
2023/10/12 06:16:20;;;;;;;4.03;2.78;;;16.70;99.90;;;;;;4958754;28;20205;-72
2023/10/12 06:18:46;;;;;;;4.00;2.60;;;16.70;99.90;;;;;;4963189;28;20273;-74
2023/10/12 06:21:19;;;;;;;7.53;2.80;;;16.70;99.90;;;;;;4965594;28;20221;-73
2023/10/12 06:23:48;;;;;;;5.80;2.20;;;16.70;99.90;;;;;;4962684;28;20174;-73
2023/10/12 06:26:36;;;;;;;4.40;2.92;;;16.60;99.90;;;;;;4956850;28;20780;-73
2023/10/12 06:29:01;;;;;;;6.05;2.58;;;16.70;99.90;;;;;;4965850;28;20617;-72
2023/10/12 06:31:29;;;;;;;5.63;2.42;;;16.70;99.90;;;;;;4962572;28;20205;-73
2023/10/12 06:33:56;;;;;;;3.55;2.70;;;16.70;99.90;;;;;;4976692;28;20214;-73
2023/10/12 06:36:36;;;;;;;6.57;3.83;;;16.80;99.90;;;;;;4961029;28;20514;-73
2023/10/12 06:44:22;;;;;;;9.18;3.88;;;16.70;99.90;;;;;;4983276;28;20261;-73
2023/10/12 06:46:54;;;;;;;5.32;3.20;;;16.80;99.90;;;;;;4983459;28;20652;-74
2023/10/12 06:49:28;;;;;;;4.90;2.95;;;16.80;99.90;;;;;;4987328;28;20223;-74
2023/10/12 06:52:01;;;;;;;10.30;5.05;;;16.80;99.90;;;;;;4988951;28;20225;-72
2023/10/12 06:54:49;;;;;;;10.82;4.45;;;16.90;99.90;;;;;;4980812;28;20177;-74
2023/10/12 06:59:52;;;;;;;7.10;3.28;;;16.80;99.90;;;;;;4986824;28;20201;-72
2023/10/12 07:02:22;;;;;;;10.55;4.43;;;16.80;99.90;;;;;;4991139;28;20204;-72
2023/10/12 07:04:53;;;;;;;10.27;3.97;;;16.80;99.90;;;;;;4984254;28;20213;-73
2023/10/12 07:07:28;;;;;;;9.52;5.13;;;16.70;99.90;;;;;;4980477;28;20696;-72
2023/10/12 07:12:41;;;;;;;9.93;4.05;;;16.80;99.90;;;;;;4981484;28;20247;-73
2023/10/12 07:15:25;;;;;;;8.43;4.50;;;16.80;99.90;;;;;;4988507;28;20178;-73
2023/10/12 07:17:54;;;;;;;8.40;4.28;;;16.70;99.90;;;;;;4984340;28;20198;-73
2023/10/12 07:22:53;;;;;;;8.23;4.60;;;16.70;99.90;;;;;;4984405;28;20304;-73
2023/10/12 07:25:22;;;;;;;8.05;4.53;;;16.70;99.90;;;;;;4985878;28;20301;-74
2023/10/12 07:27:51;;;;;;;10.38;4.45;;;16.80;99.90;;;;;;4983129;28;20724;-72
2023/10/12 07:30:42;;;;;;;12.10;4.68;;;16.80;99.90;;;;;;4986424;28;20998;-73
2023/10/12 07:33:08;;;;;;;8.38;4.22;;;16.70;99.90;;;;;;4985011;28;20250;-73
2023/10/12 07:35:36;;;;;;;8.10;4.25;;;16.70;99.90;;;;;;4985980;28;20256;-71
2023/10/12 07:38:46;;;;;;;7.32;4.22;;;16.80;99.90;;;;;;4984495;28;20206;-73
2023/10/12 07:43:20;;;;;;;6.43;3.70;;;16.80;99.90;;;;;;4983603;28;20671;-74
2023/10/12 07:45:49;;;;;;;8.97;3.80;;;16.80;99.90;;;;;;4984946;28;20249;-72
2023/10/12 07:48:31;;;;;;;8.63;4.43;;;16.70;99.90;;;;;;4980936;28;20190;-73
2023/10/12 07:51:15;;;;;;;6.55;2.95;;;16.70;99.90;;;;;;4983573;28;20264;-72
2023/10/12 07:53:44;;;;;;;1.60;1.00;;;16.60;99.90;;;;;;4983465;28;20202;-73
2023/10/12 07:56:15;;;;;;;2.13;0.75;;;16.30;99.90;;;;;;4985138;28;20209;-73
2023/10/12 07:58:57;;;;;;;1.88;0.93;;;16.10;99.90;;;;;;4987085;28;20303;-73
2023/10/12 08:01:39;;;;;;;2.25;0.68;;;15.90;99.90;;;;;;4988004;28;20225;-74
2023/10/12 08:04:19;;;;;;;2.20;0.70;;;15.70;99.90;;;;;;4983852;28;20292;-73
2023/10/12 08:06:45;;;;;;;1.45;0.68;;;15.60;99.90;;;;;;4980901;28;20225;-72
2023/10/12 08:11:51;;;;;;;2.28;0.70;;;15.50;99.90;;;;;;4984101;28;20205;-73
2023/10/12 08:19:42;;;;;;;1.45;0.70;;;15.50;99.90;;;;;;4982847;28;20217;-73
2023/10/12 08:22:22;;;;;;;1.83;0.93;;;15.50;99.90;;;;;;4984805;28;20205;-74
2023/10/12 08:24:49;;;;;;;4.93;0.90;;;15.50;99.90;;;;;;4984416;28;20206;-73
2023/10/12 08:27:18;;;;;;;2.67;0.73;;;15.40;99.90;;;;;;4979111;28;20200;-74
2023/10/12 08:32:16;;;;;;;3.67;0.93;;;15.50;99.90;;;;;;4979735;28;20209;-74
2023/10/12 08:34:42;;;;;;;2.63;0.85;;;15.40;99.90;;;;;;4982348;28;20236;-73
2023/10/12 08:40:56;;;;;;;3.50;1.42;;;15.40;99.90;;;;;;4980693;28;20218;-74
2023/10/12 08:42:55;;;;;;;5.63;1.55;;;15.30;99.90;;;;;;4980482;28;20214;-74
2023/10/12 08:45:23;;;;;;;4.38;0.90;;;15.30;99.90;;;;;;4984146;28;21032;-73
2023/10/12 08:47:53;;;;;;;2.55;0.98;;;15.30;99.90;;;;;;4981984;28;20573;-74
2023/10/12 08:52:51;;;;;;;2.72;0.85;;;15.30;99.90;;;;;;4985316;28;20255;-73
2023/10/12 08:55:31;;;;;;;5.30;0.82;;;15.40;99.90;;;;;;4981072;28;20206;-74
2023/10/12 08:58:18;;;;;;;4.10;0.98;;;15.50;99.90;;;;;;4985455;28;20332;-73
2023/10/12 09:03:27;;;;;;;3.38;1.20;;;15.70;99.90;;;;;;4985896;28;20174;-74
2023/10/12 09:05:54;;;;;;;2.38;0.95;;;15.80;99.90;;;;;;4993629;28;20849;-74
2023/10/12 09:10:54;;;;;;;6.38;1.42;;;15.90;99.90;;;;;;4982071;28;20244;-74
2023/10/12 09:13:33;;;;;;;6.90;1.55;;;15.80;99.90;;;;;;4984496;28;20209;-74
2023/10/12 09:16:00;;;;;;;5.15;1.45;;;16.00;99.90;;;;;;4981146;28;20217;-74
2023/10/12 09:18:50;;;;;;;2.47;1.30;;;16.10;99.90;;;;;;4982655;28;20175;-75
2023/10/12 09:26:34;;;;;;;3.55;0.88;;;16.20;99.90;;;;;;4978982;28;20305;-74
2023/10/12 09:36:53;;;;;;;5.22;1.75;;;16.30;99.90;;;;;;4979217;28;20221;-73
2023/10/12 09:39:28;;;;;;;3.28;1.35;;;16.30;99.90;;;;;;4990383;28;20170;-73
2023/10/12 09:41:55;;;;;;;4.57;0.80;;;16.40;99.90;;;;;;4978001;28;20170;-71
2023/10/12 09:44:28;;;;;;;3.25;0.70;;;16.40;99.90;;;;;;4976456;28;20265;-73
2023/10/12 09:46:55;;;;;;;5.07;1.10;;;16.50;99.90;;;;;;4980630;28;20272;-72
2023/10/12 09:49:24;;;;;;;7.68;1.20;;;16.50;99.90;;;;;;4984878;28;20214;-73
2023/10/12 09:51:56;;;;;;;6.53;1.00;;;16.60;99.90;;;;;;4981672;28;20554;-73
2023/10/12 09:54:45;;;;;;;2.95;0.88;;;16.70;99.90;;;;;;4985670;28;20169;-73
2023/10/12 09:57:25;;;;;;;2.97;1.15;;;16.70;99.90;;;;;;4977078;28;20178;-73
2023/10/12 09:59:53;;;;;;;3.67;1.20;;;16.70;99.90;;;;;;4981465;28;20201;-72
2023/10/12 10:02:28;;;;;;;3.00;1.10;;;16.80;99.90;;;;;;4981186;28;20205;-73
2023/10/12 10:07:55;;;;;;;2.97;1.17;;;16.90;99.90;;;;;;4979554;28;20214;-74
2023/10/12 10:10:33;;;;;;;2.20;1.17;;;16.90;99.90;;;;;;4982556;28;20236;-73
2023/10/12 10:13:00;;;;;;;4.93;1.88;;;17.00;99.90;;;;;;4985673;28;20213;-73
2023/10/12 10:15:37;;;;;;;6.43;1.20;;;17.00;99.90;;;;;;4983307;28;20705;-73
2023/10/12 10:18:07;;;;;;;5.68;1.33;;;17.10;99.90;;;;;;4984943;28;20177;-73
2023/10/12 10:20:46;;;;;;;2.53;1.25;;;16.90;99.90;;;;;;4983282;28;20206;-74
2023/10/12 10:23:14;;;;;;;2.95;1.00;;;16.90;99.90;;;;;;4988450;28;20208;-74
2023/10/12 10:25:45;;;;;;;3.03;0.73;;;17.00;99.90;;;;;;4990307;28;20214;-75
2023/10/12 10:28:23;;;;;;;1.77;0.88;;;17.10;99.90;;;;;;4985148;28;20272;-75
2023/10/12 10:30:52;;;;;;;5.22;1.05;;;17.20;99.90;;;;;;4983052;28;20719;-74
2023/10/12 10:33:23;;;;;;;3.05;1.08;;;17.30;99.90;;;;;;4992661;28;20206;-73
2023/10/12 10:36:01;;;;;;;4.53;1.95;;;17.20;99.90;;;;;;4987862;28;20253;-74
2023/10/12 10:38:32;;;;;;;3.28;1.33;;;17.10;99.90;;;;;;4987579;28;20204;-74
2023/10/12 10:41:08;;;;;;;3.45;0.93;;;17.20;99.90;;;;;;4985036;28;20297;-74
2023/10/12 10:43:39;;;;;;;3.33;1.08;;;17.00;99.90;;;;;;4989090;28;20202;-74
2023/10/12 10:46:13;;;;;;;3.65;1.23;;;17.00;99.90;;;;;;4983018;28;20672;-74
2023/10/12 10:48:43;;;;;;;5.15;1.30;;;16.90;99.90;;;;;;4985652;28;20216;-75
2023/10/12 10:51:18;;;;;;;4.03;1.20;;;16.90;99.90;;;;;;4986187;28;20289;-75
2023/10/12 10:53:50;;;;;;;2.35;1.10;;;16.80;99.90;;;;;;4982691;28;20174;-75
2023/10/12 10:56:16;;;;;;;5.20;2.10;;;16.80;99.90;;;;;;4981344;28;20206;-74
2023/10/12 10:58:46;;;;;;;7.03;2.05;;;16.90;99.90;;;;;;4990242;28;20283;-75
2023/10/12 11:01:15;;;;;;;8.30;1.67;;;16.80;99.90;;;;;;4986836;28;20296;-75
2023/10/12 11:03:42;;;;;;;8.05;1.40;;;17.00;99.90;;;;;;4983905;28;20692;-74
2023/10/12 11:06:23;;;;;;;5.30;1.08;;;17.10;99.90;;;;;;4986855;28;20210;-74
2023/10/12 11:09:06;;;;;;;4.05;1.13;;;17.20;99.90;;;;;;4980762;28;20167;-72
2023/10/12 11:11:44;;;;;;;5.38;1.20;;;17.30;99.90;;;;;;4981989;28;20197;-71
2023/10/12 11:14:14;;;;;;;4.30;1.42;;;17.30;99.90;;;;;;4983929;28;20201;-74
2023/10/12 11:16:45;;;;;;;3.15;1.48;;;17.40;99.90;;;;;;4987061;28;20268;-75
2023/10/12 11:19:11;;;;;;;4.20;1.55;;;17.40;99.90;;;;;;4984164;28;20268;-74
2023/10/12 11:21:45;;;;;;;3.97;1.35;;;17.60;99.90;;;;;;4983031;28;20210;-75
2023/10/12 11:24:13;;;;;;;11.32;1.70;;;17.70;99.90;;;;;;4985243;28;20169;-72
2023/10/12 11:26:57;;;;;;;7.30;1.45;;;17.80;99.90;;;;;;4985055;28;20540;-73
2023/10/12 11:29:24;;;;;;;2.65;0.98;;;17.80;99.90;;;;;;4985047;28;20213;-74
2023/10/12 11:32:08;;;;;;;5.40;1.45;;;17.90;99.90;;;;;;4981863;28;20202;-73
2023/10/12 11:34:52;;;;;;;3.95;1.48;;;17.90;99.90;;;;;;4986190;28;20268;-73
2023/10/12 11:37:18;;;;;;;5.93;1.30;;;17.90;99.90;;;;;;4982074;28;20263;-73
2023/10/12 11:39:46;;;;;;;7.90;1.35;;;17.90;99.90;;;;;;4985276;28;20633;-74
2023/10/12 11:42:13;;;;;;;5.50;1.85;;;18.00;99.90;;;;;;4997248;28;20641;-73
2023/10/12 11:44:43;;;;;;;2.88;1.00;;;18.00;99.90;;;;;;4985328;28;20181;-74
2023/10/12 11:47:37;;;;;;;5.28;1.88;;;18.00;99.90;;;;;;4985686;28;20237;-74
2023/10/12 11:50:03;;;;;;;4.28;1.10;;;17.90;99.90;;;;;;4981575;28;20241;-72
2023/10/12 11:52:32;;;;;;;5.90;1.45;;;17.80;99.90;;;;;;4981404;28;20205;-74
2023/10/12 11:55:06;;;;;;;1.58;0.75;;;17.70;99.90;;;;;;4982412;28;20230;-73
2023/10/12 11:57:41;;;;;;;4.78;1.20;;;17.70;99.90;;;;;;4986471;28;20204;-74
2023/10/12 12:00:29;;;;;;;4.38;1.25;;;17.80;99.90;;;;;;4984704;28;20224;-74
2023/10/12 12:03:02;;;;;;;6.30;1.10;;;17.70;99.90;;;;;;5007048;28;20198;-73
2023/10/12 12:05:33;;;;;;;4.20;1.00;;;17.80;99.90;;;;;;4984850;28;20213;-74
2023/10/12 12:08:06;;;;;;;5.20;1.45;;;17.70;99.90;;;;;;4992958;28;20222;-73
2023/10/12 12:10:38;;;;;;;2.83;1.02;;;17.80;99.90;;;;;;4984451;28;20206;-74
2023/10/12 12:13:08;;;;;;;4.80;1.58;;;17.80;99.90;;;;;;4985567;28;20300;-71
2023/10/12 12:15:34;;;;;;;6.63;1.40;;;17.80;99.90;;;;;;4979464;28;20217;-74
2023/10/12 12:18:00;;;;;;;8.88;1.30;;;17.80;99.90;;;;;;4982678;28;20201;-74
2023/10/12 12:20:26;;;;;;;6.40;1.42;;;17.80;99.90;;;;;;4983033;28;20205;-74
2023/10/12 12:22:57;;;;;;;2.60;1.00;;;17.80;99.90;;;;;;4986440;28;20212;-74
2023/10/12 12:25:32;;;;;;;5.78;1.30;;;17.80;99.90;;;;;;4983999;28;20201;-73
2023/10/12 12:28:04;;;;;;;5.10;0.98;;;17.80;99.90;;;;;;4981409;28;20225;-73
2023/10/12 12:30:32;;;;;;;5.13;1.25;;;17.60;99.90;;;;;;4982570;28;20225;-74
2023/10/12 12:33:03;;;;;;;6.90;1.20;;;17.50;99.90;;;;;;4990938;28;20194;-73
2023/10/12 12:35:36;;;;;;;4.82;1.23;;;17.60;99.90;;;;;;4982824;28;20198;-73
2023/10/12 12:38:06;;;;;;;8.52;1.45;;;17.70;99.90;;;;;;4978385;28;20206;-73
2023/10/12 12:40:38;;;;;;;8.55;1.42;;;17.80;99.90;;;;;;4983323;28;20247;-74
2023/10/12 12:43:07;;;;;;;5.93;1.52;;;17.90;99.90;;;;;;4982817;28;20289;-73
2023/10/12 12:45:35;;;;;;;3.63;0.95;;;18.00;99.90;;;;;;4981330;28;20312;-73
2023/10/12 12:48:01;;;;;;;4.13;0.90;;;18.20;99.90;;;;;;4983815;28;20201;-74
2023/10/12 12:50:28;;;;;;;4.95;1.00;;;18.20;99.90;;;;;;4994825;28;20215;-75
2023/10/12 12:52:54;;;;;;;1.60;0.80;;;18.30;99.90;;;;;;4981194;28;20198;-72
2023/10/12 12:55:22;;;;;;;3.72;0.80;;;18.30;99.90;;;;;;4983480;28;20237;-73
2023/10/12 12:57:47;;;;;;;5.07;1.70;;;18.30;99.90;;;;;;4985398;28;20205;-74
2023/10/12 13:00:19;;;;;;;4.72;1.10;;;18.30;99.90;;;;;;4983941;28;20221;-74
2023/10/12 13:02:46;;;;;;;4.93;0.80;;;18.40;99.90;;;;;;4979699;28;20198;-73
2023/10/12 13:05:12;;;;;;;3.40;1.30;;;18.50;99.90;;;;;;4986367;28;20205;-74
2023/10/12 13:07:38;;;;;;;7.20;1.45;;;18.60;99.90;;;;;;4980574;28;20312;-74
2023/10/12 13:10:06;;;;;;;3.28;1.08;;;18.60;99.90;;;;;;4979824;28;20650;-73
2023/10/12 13:12:32;;;;;;;3.67;1.08;;;18.70;99.90;;;;;;4988514;28;20202;-74
2023/10/12 13:15:01;;;;;;;7.68;1.10;;;18.60;99.90;;;;;;4983121;28;20178;-73
2023/10/12 13:17:30;;;;;;;6.40;1.35;;;18.70;99.90;;;;;;4992239;28;20301;-73
2023/10/12 13:19:58;;;;;;;3.15;1.38;;;18.70;99.90;;;;;;4984146;28;20600;-74
2023/10/12 13:22:25;;;;;;;4.90;1.00;;;18.50;99.90;;;;;;4980294;28;20212;-74
2023/10/12 13:24:58;;;;;;;5.28;1.30;;;18.50;99.90;;;;;;4987095;28;20209;-74
2023/10/12 13:27:32;;;;;;;2.05;0.98;;;18.40;99.90;;;;;;4980243;28;20703;-74
2023/10/12 13:30:00;;;;;;;5.85;1.40;;;18.40;99.90;;;;;;4983638;28;20208;-73
2023/10/12 13:32:26;;;;;;;5.18;1.05;;;18.40;99.90;;;;;;4981598;28;20293;-74
2023/10/12 13:34:58;;;;;;;5.90;1.38;;;18.40;99.90;;;;;;4983302;28;20205;-75
2023/10/12 13:37:30;;;;;;;3.75;1.55;;;18.50;99.90;;;;;;4986744;28;20521;-74
2023/10/12 13:39:57;;;;;;;5.22;1.20;;;18.50;99.90;;;;;;4982166;28;20296;-74
2023/10/12 13:42:23;;;;;;;2.58;1.05;;;18.50;99.90;;;;;;4980387;28;20177;-75
2023/10/12 13:44:50;;;;;;;4.60;1.33;;;18.30;99.90;;;;;;4985745;28;20641;-75
2023/10/12 13:47:16;;;;;;;4.97;1.30;;;18.30;99.90;;;;;;4980754;28;20293;-74
2023/10/12 13:49:41;;;;;;;6.32;1.40;;;18.20;99.90;;;;;;4980722;28;20267;-74
2023/10/12 13:52:09;;;;;;;3.03;0.93;;;18.00;99.90;;;;;;4979767;28;20210;-74
2023/10/12 13:54:35;;;;;;;4.97;1.00;;;17.90;99.90;;;;;;4981114;28;20227;-75
2023/10/12 13:57:02;;;;;;;7.13;1.52;;;17.80;99.90;;;;;;4981379;28;20186;-74
2023/10/12 13:59:29;;;;;;;3.33;0.93;;;17.70;99.90;;;;;;4984960;28;20219;-74
2023/10/12 14:01:56;;;;;;;6.18;1.05;;;17.60;99.90;;;;;;4980966;28;20214;-72
2023/10/12 14:04:40;;;;;;;4.80;1.13;;;17.50;99.90;;;;;;4983877;28;20209;-75
2023/10/12 14:07:07;;;;;;;4.40;1.33;;;17.60;99.90;;;;;;4980556;28;20221;-74
2023/10/12 14:09:33;;;;;;;3.25;1.15;;;17.60;99.90;;;;;;4989457;28;20205;-74
2023/10/12 14:11:59;;;;;;;7.88;1.58;;;17.50;99.90;;;;;;4978755;28;20197;-74
2023/10/12 14:14:24;;;;;;;5.68;1.20;;;17.40;99.90;;;;;;4982529;28;20640;-74
2023/10/12 14:16:51;;;;;;;4.13;1.40;;;17.40;99.90;;;;;;4982116;28;20209;-75
2023/10/12 14:19:22;;;;;;;5.13;1.70;;;17.40;99.90;;;;;;4978698;28;20210;-73
2023/10/12 14:21:52;;;;;;;2.65;0.98;;;17.40;99.90;;;;;;4978822;28;20263;-75
2023/10/12 14:24:24;;;;;;;2.85;1.33;;;17.40;99.90;;;;;;4979856;28;20169;-75
2023/10/12 14:26:58;;;;;;;3.72;1.20;;;17.40;99.90;;;;;;4980296;28;21100;-74
2023/10/12 14:29:25;;;;;;;5.55;1.13;;;17.40;99.90;;;;;;4986647;28;20623;-74
2023/10/12 14:31:50;;;;;;;7.15;1.38;;;17.40;99.90;;;;;;4983133;28;20201;-75
2023/10/12 14:34:16;;;;;;;5.93;1.15;;;17.40;99.90;;;;;;4982459;28;20292;-74
2023/10/12 14:36:44;;;;;;;4.50;0.95;;;17.40;99.90;;;;;;4984385;28;20205;-74
2023/10/12 14:39:22;;;;;;;7.60;1.52;;;17.40;99.90;;;;;;4981529;28;20169;-74
2023/10/12 14:41:48;;;;;;;7.22;1.70;;;17.30;99.90;;;;;;4979486;28;20249;-74
2023/10/12 14:44:16;;;;;;;3.65;1.33;;;17.40;99.90;;;;;;4980774;28;20213;-74
2023/10/12 14:46:44;;;;;;;4.72;1.20;;;17.40;99.90;;;;;;4980282;28;20301;-74
2023/10/12 14:49:11;;;;;;;3.03;1.00;;;17.30;99.90;;;;;;4980326;28;20708;-75
2023/10/12 14:51:37;;;;;;;3.83;1.15;;;17.30;99.90;;;;;;4980335;28;20580;-74
2023/10/12 14:54:03;;;;;;;4.78;1.08;;;17.20;99.90;;;;;;4984905;28;20761;-73
2023/10/12 14:56:29;;;;;;;4.82;0.80;;;17.20;99.90;;;;;;4980862;28;20214;-73
2023/10/12 14:58:56;;;;;;;7.13;1.67;;;17.00;99.90;;;;;;4978413;28;20206;-74
2023/10/12 15:01:27;;;;;;;8.13;1.45;;;17.10;99.90;;;;;;4984223;28;20210;-75
2023/10/12 15:03:54;;;;;;;7.05;1.38;;;17.00;99.90;;;;;;4981991;28;20296;-74
2023/10/12 15:06:20;;;;;;;5.70;1.50;;;17.00;99.90;;;;;;4985974;28;20550;-73
2023/10/12 15:08:47;;;;;;;3.35;1.00;;;16.90;99.90;;;;;;4981715;28;20224;-73
2023/10/12 15:11:13;;;;;;;5.63;1.48;;;16.90;99.90;;;;;;4982167;28;20206;-74
2023/10/12 15:13:40;;;;;;;2.35;1.33;;;16.90;99.90;;;;;;4986490;28;20719;-74
2023/10/12 15:16:10;;;;;;;4.15;1.30;;;16.80;99.90;;;;;;4990660;28;20206;-74
2023/10/12 15:18:41;;;;;;;4.25;1.40;;;16.80;99.90;;;;;;4989180;28;20268;-73
2023/10/12 15:21:14;;;;;;;1.88;1.10;;;16.80;99.90;;;;;;4987002;28;20206;-75
2023/10/12 15:23:42;;;;;;;4.75;1.38;;;16.80;99.90;;;;;;4984432;28;20166;-74
2023/10/12 15:26:11;;;;;;;3.63;1.45;;;16.80;99.90;;;;;;4986801;28;20202;-75